aviador You're here:

DAUA Decoded Metar

ADRAR in ALGERIA
Report Time2018-01-17 09:00:00
UTC Time2018-01-17 09:17:36
Flight Rules vfr VFR
Wind050° at 14 kt
W.Decomp.*RWY 04: 13.7 kt HW 2.7 kt RCW
W.Rank050° ranks 6
Current wind is above 050° avg. (12.5)
Visibility9999 m
Phenomena:N/A
Clouds:N/A
Expected CloudBase > 8,400 ft AGL from Temp-Dew spread
CeilingNone
Temp10°C (ISA -3)
Dew Point-11°C (22% RH)
AAT1.8°C
QNH1021 hPa
Density Alt243 ft
Elevation863 ft
Report Wrong Elevation
Raw Report
DAUA 170900Z 05014KT CAVOK 10/M11 Q1021=

Extra information for DAUA:More info

Metar Taf Metar & Taf Last 4 Metars F.Rules Stats Wind Profile Meteogram Temp Stats Airport Information Weather charts Add Link Nearby VenuesMetar ALERT Operation Metar Decoded Social comments